Time;durP1;ratioP1;P1;durP2;ratioP2;P2;SDS_P1;SDS_P2;PMS_P1;PMS_P2;Temp;Humidity;BMP_temperature;BMP_pressure;BME280_temperature;BME280_humidity;BME280_pressure;Samples;Min_cycle;Max_cycle;Signal;HPM_P1;HPM_P2
2022/06/18 00:22:04;;;;;;;2.80;2.60;;;20.70;99.30;;;;;;10668919;23;20792;-92
2022/06/18 00:27:17;;;;;;;2.92;2.72;;;20.70;99.40;;;;;;10362009;28;20263;-92
2022/06/18 00:38:24;;;;;;;3.38;3.08;;;20.70;99.30;;;;;;10704849;23;20259;-91
2022/06/18 00:43:55;;;;;;;2.83;2.63;;;20.80;99.30;;;;;;10384688;28;20212;-91
2022/06/18 00:49:32;;;;;;;2.75;2.55;;;20.80;99.30;;;;;;10364077;28;20200;-91
2022/06/18 00:55:00;;;;;;;3.00;2.80;;;20.80;99.40;;;;;;10377703;28;20236;-92
2022/06/18 01:00:06;;;;;;;3.30;2.92;;;20.80;99.40;;;;;;10356612;28;20262;-90
2022/06/18 01:05:20;;;;;;;3.05;2.65;;;20.80;99.60;;;;;;10358143;28;20204;-91
2022/06/18 01:10:32;;;;;;;3.10;2.85;;;20.80;99.40;;;;;;10372512;28;20211;-91
2022/06/18 01:15:38;;;;;;;3.20;2.72;;;20.80;99.40;;;;;;10357207;28;20239;-91
2022/06/18 01:21:02;;;;;;;3.28;3.00;;;20.80;99.40;;;;;;10371807;28;20251;-91
2022/06/18 01:26:07;;;;;;;2.85;2.63;;;20.80;99.40;;;;;;10371079;28;20231;-90
2022/06/18 01:31:12;;;;;;;3.10;2.80;;;20.80;99.50;;;;;;10356223;28;20211;-90
2022/06/18 01:36:21;;;;;;;3.45;3.15;;;20.70;99.50;;;;;;10371666;28;20578;-90
2022/06/18 01:41:52;;;;;;;3.13;2.92;;;20.70;99.60;;;;;;10371528;28;20209;-91
2022/06/18 01:47:29;;;;;;;3.03;2.70;;;20.70;99.70;;;;;;10372818;28;20266;-93
2022/06/18 01:52:38;;;;;;;3.25;3.00;;;20.70;99.70;;;;;;10345775;28;20227;-90
2022/06/18 01:57:51;;;;;;;4.13;2.90;;;20.70;99.80;;;;;;10378116;28;20220;-91
2022/06/18 02:02:57;;;;;;;3.17;2.97;;;20.70;99.90;;;;;;10373671;28;20558;-92
2022/06/18 02:08:08;;;;;;;4.75;2.92;;;20.70;99.90;;;;;;10370005;28;20200;-90
2022/06/18 02:13:25;;;;;;;3.38;3.08;;;20.70;99.90;;;;;;10360966;28;20234;-91
2022/06/18 02:18:34;;;;;;;4.40;2.83;;;20.70;99.90;;;;;;10363782;28;20228;-92
2022/06/18 02:23:46;;;;;;;3.20;2.90;;;20.70;99.80;;;;;;10364729;28;20212;-92
2022/06/18 02:28:56;;;;;;;3.67;3.25;;;20.70;99.90;;;;;;10379594;28;20235;-91
2022/06/18 02:34:26;;;;;;;3.55;3.03;;;20.70;99.90;;;;;;10354437;23;20271;-90
2022/06/18 02:39:51;;;;;;;3.63;3.25;;;20.70;99.90;;;;;;10344719;28;20237;-90
2022/06/18 02:56:37;;;;;;;3.10;2.90;;;20.70;99.90;;;;;;11854741;23;20286;-91
2022/06/18 03:01:41;;;;;;;3.30;3.08;;;20.80;99.90;;;;;;10417582;28;20203;-90
2022/06/18 03:06:44;;;;;;;3.25;2.95;;;20.80;99.90;;;;;;10417376;28;20200;-90
2022/06/18 03:12:07;;;;;;;2.90;2.58;;;20.80;99.90;;;;;;10400629;28;20199;-91
2022/06/18 03:17:13;;;;;;;3.53;3.22;;;20.80;99.80;;;;;;10402364;28;20223;-91
2022/06/18 03:22:20;;;;;;;4.18;3.25;;;20.80;99.80;;;;;;10417868;28;20549;-91
2022/06/18 03:27:25;;;;;;;3.08;2.70;;;20.80;99.80;;;;;;10419156;28;20212;-91
2022/06/18 03:32:40;;;;;;;3.42;2.97;;;20.90;99.70;;;;;;10406547;28;20199;-91
2022/06/18 03:37:47;;;;;;;3.13;2.80;;;20.90;99.70;;;;;;10382029;28;20220;-92
2022/06/18 03:43:27;;;;;;;3.90;3.47;;;20.90;99.60;;;;;;10515296;23;20275;-92
2022/06/18 03:48:48;;;;;;;3.40;3.08;;;20.90;99.60;;;;;;10380799;28;20209;-91
2022/06/18 03:54:05;;;;;;;4.47;3.00;;;20.90;99.50;;;;;;10343247;28;20217;-91
2022/06/18 03:59:20;;;;;;;2.72;2.53;;;21.00;99.40;;;;;;10353002;28;20228;-91
2022/06/18 04:04:31;;;;;;;3.38;3.08;;;21.00;99.40;;;;;;10374675;28;20196;-91
2022/06/18 04:10:01;;;;;;;3.63;2.88;;;21.00;99.30;;;;;;11225800;23;20763;-92
2022/06/18 04:15:35;;;;;;;3.20;2.90;;;21.00;99.30;;;;;;12287127;22;10565511;-90
2022/06/18 04:20:50;;;;;;;3.08;2.88;;;21.00;99.30;;;;;;10209753;28;20218;-91
2022/06/18 04:26:23;;;;;;;3.53;3.22;;;21.10;99.10;;;;;;11424839;22;20249;-92
2022/06/18 04:31:29;;;;;;;2.88;2.63;;;21.20;99.10;;;;;;10460907;28;20226;-91
2022/06/18 04:42:25;;;;;;;3.47;3.17;;;21.10;99.10;;;;;;10717682;22;20300;-93
2022/06/18 04:47:29;;;;;;;3.05;2.75;;;21.10;99.10;;;;;;10438040;28;20195;-94
2022/06/18 04:52:35;;;;;;;3.40;3.10;;;21.10;99.10;;;;;;10425914;28;20245;-93
2022/06/18 04:57:40;;;;;;;3.03;2.83;;;21.10;99.10;;;;;;10484995;28;20211;-93
2022/06/18 05:02:44;;;;;;;4.40;2.97;;;21.20;99.00;;;;;;10464509;28;20207;-94
2022/06/18 05:08:05;;;;;;;4.55;3.20;;;21.30;98.80;;;;;;10468196;28;20667;-93
2022/06/18 05:13:19;;;;;;;4.50;2.53;;;21.40;98.70;;;;;;10450719;28;20596;-93
2022/06/18 05:18:26;;;;;;;3.05;2.70;;;21.40;98.60;;;;;;10452912;28;20233;-93
2022/06/18 05:23:31;;;;;;;3.08;2.83;;;21.40;98.60;;;;;;10472543;28;20202;-93
2022/06/18 05:28:36;;;;;;;5.13;3.42;;;21.40;98.60;;;;;;10454827;28;20207;-93
2022/06/18 05:33:39;;;;;;;3.47;3.17;;;21.40;98.60;;;;;;10383631;28;20329;-93
2022/06/18 05:38:43;;;;;;;2.88;2.67;;;21.40;98.60;;;;;;10453031;28;20285;-93
2022/06/18 05:43:46;;;;;;;3.20;2.90;;;21.40;98.60;;;;;;10445039;28;20214;-92
2022/06/18 05:48:49;;;;;;;2.83;2.50;;;21.40;98.40;;;;;;10425861;28;20203;-93
2022/06/18 05:53:52;;;;;;;5.25;2.85;;;21.50;98.30;;;;;;10416686;28;20281;-93
2022/06/18 05:59:16;;;;;;;2.95;2.75;;;21.60;98.10;;;;;;10438866;28;20606;-94
2022/06/18 06:04:19;;;;;;;3.55;3.03;;;21.70;97.90;;;;;;10457448;28;20604;-93
2022/06/18 06:15:07;;;;;;;3.22;3.03;;;21.90;97.70;;;;;;10371300;28;20281;-93
2022/06/18 06:20:32;;;;;;;4.68;2.90;;;22.00;97.40;;;;;;10413267;28;20208;-92
2022/06/18 06:25:36;;;;;;;3.15;2.92;;;22.10;97.30;;;;;;10409430;28;20310;-93
2022/06/18 06:30:39;;;;;;;3.00;2.80;;;22.00;97.30;;;;;;10400456;28;20197;-92
2022/06/18 06:35:45;;;;;;;4.47;3.15;;;22.00;97.40;;;;;;10365845;28;20231;-93
2022/06/18 06:40:48;;;;;;;3.25;2.97;;;22.10;97.80;;;;;;10378483;28;20224;-93
2022/06/18 06:45:50;;;;;;;3.78;3.47;;;22.20;97.10;;;;;;10392663;28;20204;-93
2022/06/18 06:50:53;;;;;;;3.72;3.42;;;22.20;97.00;;;;;;10396660;28;20242;-93
2022/06/18 07:01:17;;;;;;;3.10;2.88;;;22.00;96.20;;;;;;10434497;28;20211;-93
2022/06/18 07:06:20;;;;;;;3.22;2.90;;;22.10;97.10;;;;;;10426157;28;20195;-94
2022/06/18 07:11:22;;;;;;;5.90;3.80;;;22.20;97.00;;;;;;10422734;28;20634;-93
2022/06/18 07:16:25;;;;;;;2.78;2.58;;;22.20;97.40;;;;;;10418270;28;20569;-93
2022/06/18 07:21:33;;;;;;;3.05;2.85;;;22.30;96.90;;;;;;10433521;28;20195;-94
2022/06/18 07:26:36;;;;;;;2.92;2.53;;;22.30;96.70;;;;;;10473943;28;20191;-95
2022/06/18 07:31:38;;;;;;;3.22;2.72;;;22.30;96.20;;;;;;10482402;28;20220;-95
2022/06/18 07:36:41;;;;;;;3.80;2.95;;;22.30;96.50;;;;;;10465037;28;20183;-94
2022/06/18 07:41:48;;;;;;;4.10;2.58;;;22.30;96.30;;;;;;10463896;28;20219;-95
2022/06/18 07:46:52;;;;;;;4.07;2.38;;;22.50;95.90;;;;;;10464081;28;20199;-94
2022/06/18 07:51:55;;;;;;;3.55;3.28;;;22.70;95.70;;;;;;10447875;28;20250;-95
2022/06/18 07:56:57;;;;;;;4.13;2.75;;;22.70;95.80;;;;;;10463736;28;20210;-96
2022/06/18 08:02:00;;;;;;;5.50;2.97;;;23.00;94.80;;;;;;10463809;28;20184;-95
2022/06/18 08:07:03;;;;;;;3.13;2.83;;;23.10;94.40;;;;;;10502017;28;20191;-95
2022/06/18 08:12:06;;;;;;;6.35;3.00;;;23.30;94.10;;;;;;10501069;28;20241;-94
2022/06/18 08:17:09;;;;;;;4.25;2.30;;;23.60;93.70;;;;;;10481852;28;20227;-96
2022/06/18 08:22:12;;;;;;;2.45;2.00;;;23.80;94.30;;;;;;10498893;28;20202;-95
2022/06/18 08:27:16;;;;;;;8.65;2.20;;;24.30;93.30;;;;;;10486806;28;20187;-94
2022/06/18 08:32:19;;;;;;;2.45;1.90;;;25.00;94.00;;;;;;10503804;28;20206;-95
2022/06/18 08:37:23;;;;;;;3.50;3.05;;;25.40;91.30;;;;;;10487631;28;20183;-95
2022/06/18 08:42:58;;;;;;;4.78;2.95;;;25.00;90.70;;;;;;10503495;28;20237;-94
2022/06/18 08:48:19;;;;;;;4.05;2.70;;;25.20;89.90;;;;;;10446909;28;20172;-94
2022/06/18 08:53:42;;;;;;;3.03;1.90;;;24.50;89.50;;;;;;10445378;28;20207;-94
2022/06/18 08:58:59;;;;;;;1.58;1.33;;;24.70;89.50;;;;;;10452181;28;20614;-95
2022/06/18 09:04:40;;;;;;;4.22;2.45;;;24.70;91.20;;;;;;10460354;28;20204;-95
2022/06/18 09:09:58;;;;;;;2.13;1.92;;;25.00;89.90;;;;;;10425392;28;20262;-94
2022/06/18 09:15:08;;;;;;;3.10;2.88;;;25.10;88.20;;;;;;10423895;28;20219;-94
2022/06/18 09:20:22;;;;;;;3.03;2.83;;;24.30;90.20;;;;;;10444426;28;20222;-96
2022/06/18 09:25:30;;;;;;;3.10;2.80;;;24.20;90.60;;;;;;10429558;28;20208;-95
2022/06/18 09:30:47;;;;;;;2.65;1.52;;;24.30;90.40;;;;;;10449558;28;20238;-94
2022/06/18 09:35:57;;;;;;;2.70;2.50;;;24.20;88.10;;;;;;10410382;28;20633;-96
2022/06/18 09:41:04;;;;;;;2.25;2.03;;;24.10;88.70;;;;;;10421779;28;20231;-95
2022/06/18 09:46:17;;;;;;;4.28;1.65;;;24.80;88.50;;;;;;10449788;28;20264;-95
2022/06/18 09:51:37;;;;;;;3.55;1.50;;;25.50;85.30;;;;;;10461917;28;20210;-94
2022/06/18 09:56:48;;;;;;;3.80;1.73;;;25.40;87.40;;;;;;10461750;28;20207;-95
2022/06/18 10:01:53;;;;;;;3.75;2.40;;;25.80;85.40;;;;;;10429587;28;20553;-94
2022/06/18 10:07:03;;;;;;;2.50;2.30;;;25.20;84.80;;;;;;10445358;28;20270;-95
2022/06/18 10:12:19;;;;;;;7.85;2.17;;;24.10;88.80;;;;;;10445450;28;20224;-93
2022/06/18 10:17:49;;;;;;;6.13;1.83;;;25.60;85.00;;;;;;10456411;28;20202;-93
2022/06/18 10:23:20;;;;;;;2.22;1.92;;;26.40;83.00;;;;;;10453807;28;20202;-92
2022/06/18 10:28:47;;;;;;;3.78;1.90;;;26.90;84.30;;;;;;10417589;28;20199;-93
2022/06/18 10:34:15;;;;;;;3.05;2.10;;;26.90;83.50;;;;;;10444811;28;20218;-93
2022/06/18 10:39:17;;;;;;;2.95;2.47;;;26.50;75.70;;;;;;10413285;28;20227;-91
2022/06/18 10:44:59;;;;;;;3.40;1.50;;;26.20;79.50;;;;;;10431112;28;20203;-92
2022/06/18 10:50:09;;;;;;;13.95;1.98;;;26.80;81.30;;;;;;10398343;28;20211;-94
2022/06/18 10:55:20;;;;;;;3.92;1.20;;;27.70;79.40;;;;;;10414613;28;20720;-93
2022/06/18 11:00:28;;;;;;;4.50;1.63;;;27.20;76.40;;;;;;10413159;28;20262;-94
2022/06/18 11:05:37;;;;;;;1.98;1.67;;;26.80;77.70;;;;;;10440020;28;20238;-92
2022/06/18 11:10:59;;;;;;;5.15;1.67;;;26.30;75.00;;;;;;10454155;28;20688;-94
2022/06/18 11:16:16;;;;;;;2.20;1.95;;;27.00;77.00;;;;;;10432266;28;20227;-94
2022/06/18 11:21:34;;;;;;;3.38;2.10;;;27.00;75.30;;;;;;10415809;28;20219;-94
2022/06/18 11:26:49;;;;;;;3.08;2.83;;;26.90;73.70;;;;;;10414266;28;20216;-93
2022/06/18 11:31:55;;;;;;;12.00;2.20;;;26.20;78.20;;;;;;10397263;28;20207;-95
2022/06/18 11:36:59;;;;;;;2.67;2.45;;;26.00;76.70;;;;;;10414444;28;20730;-95
2022/06/18 11:42:08;;;;;;;4.85;1.50;;;25.40;79.50;;;;;;10396288;28;20258;-94
2022/06/18 11:47:14;;;;;;;5.97;1.75;;;26.30;77.40;;;;;;10433781;28;20207;-90
2022/06/18 11:52:35;;;;;;;6.07;1.70;;;26.30;76.70;;;;;;10440754;28;20194;-91
2022/06/18 11:57:52;;;;;;;5.93;2.10;;;26.50;77.20;;;;;;10434723;28;20207;-92
2022/06/18 12:03:35;;;;;;;7.63;1.73;;;26.60;77.50;;;;;;10452434;28;20240;-92
2022/06/18 12:08:38;;;;;;;5.00;2.00;;;26.70;77.40;;;;;;10449007;28;20211;-92
2022/06/18 12:13:53;;;;;;;5.30;1.70;;;26.70;77.30;;;;;;10432213;28;20246;-91
2022/06/18 12:19:31;;;;;;;6.68;2.08;;;26.60;77.40;;;;;;10409255;28;20254;-92
2022/06/18 12:24:48;;;;;;;2.67;1.85;;;27.40;75.80;;;;;;10407675;28;20230;-92
2022/06/18 12:30:12;;;;;;;1.83;1.65;;;26.60;77.30;;;;;;10448633;28;20234;-92
2022/06/18 12:35:43;;;;;;;4.38;1.80;;;26.40;78.30;;;;;;10495255;28;20250;-92
2022/06/18 12:41:05;;;;;;;6.80;2.05;;;26.50;78.10;;;;;;10498886;28;20269;-91
2022/06/18 12:46:31;;;;;;;2.33;2.10;;;26.20;78.90;;;;;;10457111;28;20238;-91
2022/06/18 12:51:44;;;;;;;2.55;2.00;;;26.00;79.60;;;;;;10416301;28;20207;-91
2022/06/18 12:57:02;;;;;;;2.13;1.98;;;25.80;79.70;;;;;;10432150;28;20285;-91
2022/06/18 13:02:12;;;;;;;3.60;1.65;;;25.80;79.50;;;;;;10435875;28;20671;-91
2022/06/18 13:07:21;;;;;;;3.75;2.15;;;25.70;79.90;;;;;;10413782;28;20203;-90
2022/06/18 13:12:41;;;;;;;6.88;2.15;;;25.70;80.00;;;;;;10414431;28;20231;-91
2022/06/18 13:17:51;;;;;;;4.15;2.00;;;25.60;79.80;;;;;;10424875;28;20194;-92
2022/06/18 13:22:54;;;;;;;2.20;2.00;;;25.80;79.40;;;;;;10455294;28;20203;-92
2022/06/18 13:28:10;;;;;;;6.65;2.50;;;25.60;79.60;;;;;;10456579;28;20235;-91
2022/06/18 13:33:31;;;;;;;2.75;2.25;;;25.70;79.20;;;;;;10440133;28;20227;-92
2022/06/18 13:38:48;;;;;;;2.08;1.90;;;25.40;79.80;;;;;;10413282;28;20279;-92
2022/06/18 13:44:10;;;;;;;3.97;2.03;;;26.50;76.10;;;;;;10414266;28;20269;-91
2022/06/18 13:49:24;;;;;;;7.55;2.05;;;26.20;75.90;;;;;;10434329;28;20647;-92
2022/06/18 13:54:42;;;;;;;2.38;1.67;;;27.20;74.40;;;;;;10410101;28;20255;-92
2022/06/18 14:00:00;;;;;;;3.67;1.95;;;28.80;70.10;;;;;;10396488;28;20226;-92
2022/06/18 14:05:10;;;;;;;2.70;2.10;;;28.40;70.40;;;;;;10413543;28;20222;-92
2022/06/18 14:10:21;;;;;;;3.90;2.00;;;26.90;72.90;;;;;;10380899;28;20293;-91
2022/06/18 14:15:27;;;;;;;2.38;2.20;;;26.40;74.70;;;;;;10413223;28;20251;-92
2022/06/18 14:20:39;;;;;;;6.75;2.20;;;26.60;75.50;;;;;;10466638;28;20279;-91
2022/06/18 14:25:41;;;;;;;4.93;2.20;;;27.20;70.10;;;;;;10495613;28;20228;-91
2022/06/18 14:30:49;;;;;;;2.38;2.17;;;26.80;74.10;;;;;;10476802;28;20684;-91
2022/06/18 14:36:17;;;;;;;2.45;2.25;;;26.00;76.70;;;;;;10412736;28;20262;-90
2022/06/18 14:41:37;;;;;;;3.05;2.70;;;25.40;78.40;;;;;;10450522;28;20323;-91
2022/06/18 14:47:11;;;;;;;2.75;1.95;;;25.40;78.50;;;;;;10394392;28;20235;-91
2022/06/18 14:52:32;;;;;;;4.97;2.80;;;26.30;74.40;;;;;;10396608;28;20247;-90
2022/06/18 14:58:10;;;;;;;3.72;2.55;;;25.90;76.50;;;;;;10435867;28;20246;-90
2022/06/18 15:03:23;;;;;;;2.72;2.20;;;25.20;78.60;;;;;;10452830;28;20202;-91
2022/06/18 15:08:27;;;;;;;3.53;2.28;;;25.10;78.90;;;;;;10492479;28;20733;-91
2022/06/18 15:13:37;;;;;;;2.75;2.15;;;25.10;79.10;;;;;;10421317;28;20649;-90
2022/06/18 15:18:56;;;;;;;4.05;2.53;;;25.00;79.70;;;;;;10444983;28;20227;-91
2022/06/18 15:24:09;;;;;;;2.35;2.15;;;25.10;79.30;;;;;;10421715;28;20207;-91
2022/06/18 15:29:17;;;;;;;6.85;2.50;;;24.90;80.10;;;;;;10409032;28;20231;-91
2022/06/18 15:34:23;;;;;;;3.13;2.35;;;24.90;80.30;;;;;;10471458;28;20924;-84
2022/06/18 15:39:26;;;;;;;18.45;3.55;;;24.80;80.90;;;;;;10483631;28;20900;-83
2022/06/18 15:44:32;;;;;;;4.88;3.13;;;24.70;81.40;;;;;;10474871;28;20238;-84
2022/06/18 15:49:40;;;;;;;5.82;3.90;;;24.80;81.50;;;;;;10463497;28;20226;-84
2022/06/18 15:54:45;;;;;;;7.45;3.53;;;24.70;81.80;;;;;;10431229;28;20695;-89
2022/06/18 16:00:04;;;;;;;6.70;4.03;;;24.70;81.90;;;;;;10449093;28;20272;-89
2022/06/18 16:05:20;;;;;;;8.95;3.60;;;25.40;80.50;;;;;;10450752;28;20249;-89
2022/06/18 16:10:41;;;;;;;6.53;3.15;;;25.70;78.60;;;;;;10426867;28;20262;-89
2022/06/18 16:15:51;;;;;;;12.48;3.60;;;26.40;76.20;;;;;;10409131;28;21068;-90
2022/06/18 16:20:56;;;;;;;8.98;3.38;;;26.00;77.20;;;;;;10440604;28;20195;-90
2022/06/18 16:26:01;;;;;;;11.48;3.95;;;26.30;75.70;;;;;;10435931;28;20553;-90
2022/06/18 16:31:09;;;;;;;6.95;3.25;;;26.10;77.10;;;;;;10409337;28;20231;-90
2022/06/18 16:36:19;;;;;;;8.88;3.83;;;26.60;73.20;;;;;;10407349;28;20259;-89
2022/06/18 16:41:28;;;;;;;8.90;3.45;;;27.20;74.30;;;;;;10434796;28;20301;-90
2022/06/18 16:46:33;;;;;;;9.77;3.90;;;27.70;71.30;;;;;;10450457;28;20271;-89
2022/06/18 16:51:51;;;;;;;6.65;3.72;;;27.50;70.50;;;;;;10447877;28;20237;-90
2022/06/18 16:56:55;;;;;;;6.13;2.85;;;27.70;71.80;;;;;;10435359;28;20239;-90
2022/06/18 17:01:59;;;;;;;7.40;3.67;;;27.60;71.70;;;;;;10449495;28;20222;-89
2022/06/18 17:07:02;;;;;;;7.47;3.58;;;27.70;72.40;;;;;;10431654;28;20198;-90
2022/06/18 17:12:05;;;;;;;5.85;3.38;;;27.30;72.50;;;;;;10489901;28;20748;-89
2022/06/18 17:17:08;;;;;;;19.23;3.40;;;27.80;71.80;;;;;;10455058;28;20268;-90
2022/06/18 17:22:11;;;;;;;10.82;3.50;;;28.80;68.80;;;;;;10496094;28;20680;-90
2022/06/18 17:32:36;;;;;;;12.68;4.80;;;29.20;68.70;;;;;;10447934;28;20649;-88
2022/06/18 17:37:42;;;;;;;11.30;4.13;;;28.90;66.60;;;;;;10438660;28;20668;-88
2022/06/18 17:42:44;;;;;;;13.20;4.53;;;29.00;66.30;;;;;;10450682;28;20315;-88
2022/06/18 17:47:47;;;;;;;8.30;3.22;;;29.10;68.00;;;;;;10462509;28;20238;-88
2022/06/18 17:52:50;;;;;;;14.00;3.70;;;;;;;;;;10496889;28;20339;-87
2022/06/18 17:57:52;;;;;;;10.90;3.97;;;29.20;75.00;;;;;;10471072;28;20667;-87
2022/06/18 18:02:55;;;;;;;12.45;3.40;;;29.00;69.00;;;;;;10436519;28;20276;-87
2022/06/18 18:07:58;;;;;;;14.98;3.42;;;28.90;73.10;;;;;;10457787;28;20666;-87
2022/06/18 18:13:01;;;;;;;9.43;4.35;;;28.50;82.80;;;;;;10454709;28;20621;-88
2022/06/18 18:18:04;;;;;;;10.25;3.78;;;28.00;78.30;;;;;;10454115;28;20254;-88
2022/06/18 18:23:06;;;;;;;9.70;4.65;;;27.70;79.90;;;;;;10454262;28;20227;-87
2022/06/18 18:28:09;;;;;;;7.03;4.10;;;27.20;80.20;;;;;;10109903;28;9999610;-88
2022/06/18 18:33:13;;;;;;;8.70;4.20;;;26.80;90.60;;;;;;10491960;28;20230;-87
2022/06/18 18:38:15;;;;;;;16.33;3.83;;;26.40;92.10;;;;;;10450208;28;20308;-87
2022/06/18 18:43:20;;;;;;;12.73;4.10;;;25.90;92.90;;;;;;10463451;28;20814;-88
2022/06/18 18:48:22;;;;;;;11.18;4.32;;;25.50;91.50;;;;;;10432536;28;20235;-88
2022/06/18 18:53:25;;;;;;;11.68;4.75;;;25.10;93.20;;;;;;10470287;28;20229;-87
2022/06/18 18:58:27;;;;;;;10.68;4.15;;;24.70;92.90;;;;;;10454465;28;20246;-88
2022/06/18 19:03:30;;;;;;;22.50;4.95;;;24.40;95.40;;;;;;10471696;28;20616;-87
2022/06/18 19:08:33;;;;;;;15.55;5.00;;;24.10;99.90;;;;;;10489634;28;20263;-88
2022/06/18 19:13:36;;;;;;;18.98;5.28;;;23.70;99.90;;;;;;10490161;28;20242;-88
2022/06/18 19:18:41;;;;;;;9.30;4.85;;;23.50;99.90;;;;;;10472038;28;20273;-88
2022/06/18 19:23:45;;;;;;;3.58;3.22;;;23.30;99.10;;;;;;10473413;28;20613;-88
2022/06/18 19:28:53;;;;;;;4.68;2.88;;;23.30;94.20;;;;;;10499948;28;20241;-88
2022/06/18 19:33:56;;;;;;;15.50;7.30;;;23.30;93.60;;;;;;10477243;28;20722;-87
2022/06/18 19:38:58;;;;;;;3.42;3.13;;;23.20;96.60;;;;;;10528046;28;20284;-88
2022/06/18 19:44:01;;;;;;;3.38;3.08;;;23.10;94.10;;;;;;10495477;28;20237;-87
2022/06/18 19:49:04;;;;;;;3.83;2.88;;;23.10;94.40;;;;;;10508854;28;20217;-88
2022/06/18 19:54:07;;;;;;;4.28;3.88;;;23.00;94.10;;;;;;10471853;28;20295;-88
2022/06/18 19:59:09;;;;;;;3.63;3.25;;;23.00;94.10;;;;;;10453639;28;20238;-88
2022/06/18 20:04:13;;;;;;;5.82;3.47;;;22.90;94.10;;;;;;10469700;28;20688;-88
2022/06/18 20:09:15;;;;;;;5.43;3.65;;;22.90;94.20;;;;;;10487987;28;20261;-88
2022/06/18 20:14:18;;;;;;;7.15;3.28;;;22.90;94.30;;;;;;10470299;28;20268;-88
2022/06/18 20:19:21;;;;;;;4.85;3.25;;;22.90;94.40;;;;;;10487860;28;20234;-88
2022/06/18 20:24:25;;;;;;;4.85;3.42;;;22.80;94.50;;;;;;10460805;28;20240;-88
2022/06/18 20:29:28;;;;;;;3.95;3.65;;;22.70;94.60;;;;;;10528868;28;20232;-87
2022/06/18 20:34:31;;;;;;;5.18;3.22;;;22.80;94.80;;;;;;10474610;28;20326;-87
2022/06/18 20:39:34;;;;;;;3.60;3.30;;;22.70;94.90;;;;;;10468766;28;20689;-87
2022/06/18 20:44:37;;;;;;;5.38;3.50;;;22.70;95.00;;;;;;10468786;28;20652;-87
2022/06/18 20:49:39;;;;;;;23.23;9.38;;;22.60;95.10;;;;;;10485139;28;20221;-87
2022/06/18 21:00:04;;;;;;;4.68;3.17;;;22.60;97.30;;;;;;10518095;28;20626;-86
2022/06/18 21:05:09;;;;;;;3.60;3.30;;;22.50;96.50;;;;;;10537164;28;20252;-87
2022/06/18 21:10:13;;;;;;;4.07;3.67;;;22.50;96.60;;;;;;10519717;28;20232;-87
2022/06/18 21:15:16;;;;;;;4.32;3.33;;;22.50;96.40;;;;;;10537083;28;20294;-87
2022/06/18 21:20:18;;;;;;;4.55;3.53;;;22.50;96.40;;;;;;10501803;28;20222;-87
2022/06/18 21:25:24;;;;;;;4.07;3.50;;;22.50;96.40;;;;;;10509437;28;20269;-86
2022/06/18 21:30:27;;;;;;;4.28;3.40;;;22.50;96.50;;;;;;10486628;28;20283;-86
2022/06/18 21:40:55;;;;;;;3.20;2.90;;;22.40;96.50;;;;;;10474672;28;20261;-87
2022/06/18 21:46:01;;;;;;;4.43;4.03;;;22.40;96.60;;;;;;10493224;28;20291;-87
2022/06/18 21:51:03;;;;;;;4.40;3.92;;;22.40;96.60;;;;;;10493855;28;20226;-86
2022/06/18 21:56:11;;;;;;;3.83;3.45;;;22.40;96.70;;;;;;10459566;28;20719;-87
2022/06/18 22:01:14;;;;;;;3.95;3.53;;;22.40;96.70;;;;;;10492749;28;20863;-87
2022/06/18 22:06:16;;;;;;;4.30;3.90;;;22.40;96.70;;;;;;10492121;28;20226;-86
2022/06/18 22:11:19;;;;;;;4.85;3.90;;;22.30;96.80;;;;;;10491921;28;20229;-86
2022/06/18 22:21:43;;;;;;;4.38;3.97;;;22.30;96.90;;;;;;10492271;28;20226;-86
2022/06/18 22:26:46;;;;;;;3.83;3.50;;;22.30;97.10;;;;;;10500580;28;20291;-86
2022/06/18 22:31:48;;;;;;;3.78;3.45;;;22.30;97.10;;;;;;10532941;28;20289;-86
2022/06/18 22:36:51;;;;;;;4.13;3.42;;;22.20;97.40;;;;;;10489834;28;20334;-87
2022/06/18 22:41:54;;;;;;;9.82;5.90;;;22.20;97.40;;;;;;10476793;28;20718;-87
2022/06/18 22:47:02;;;;;;;4.13;3.50;;;20.90;99.90;;;;;;10513798;28;20217;-87
2022/06/18 22:52:06;;;;;;;4.22;3.83;;;21.50;99.90;;;;;;10532610;28;20222;-87
2022/06/18 22:57:09;;;;;;;5.82;4.07;;;21.80;99.90;;;;;;10486180;28;20690;-87
2022/06/18 23:02:11;;;;;;;4.60;4.07;;;22.00;99.90;;;;;;10516324;28;20612;-86
2022/06/18 23:07:18;;;;;;;4.22;3.85;;;22.00;99.90;;;;;;10535069;28;20307;-86
2022/06/18 23:12:21;;;;;;;4.57;3.70;;;22.10;99.90;;;;;;10511625;28;20229;-86
2022/06/18 23:17:26;;;;;;;3.58;3.22;;;22.10;99.90;;;;;;10534781;28;20314;-86
2022/06/18 23:22:29;;;;;;;4.25;3.33;;;22.20;99.90;;;;;;10516414;28;20759;-86
2022/06/18 23:27:31;;;;;;;3.85;3.47;;;22.20;99.80;;;;;;10534338;28;20221;-86
2022/06/18 23:32:36;;;;;;;3.70;3.25;;;22.20;99.70;;;;;;10534885;28;20224;-86
2022/06/18 23:37:44;;;;;;;4.05;3.60;;;22.10;99.70;;;;;;10534823;28;20785;-86
2022/06/18 23:42:46;;;;;;;5.38;4.03;;;22.20;99.70;;;;;;10481066;28;20663;-86
2022/06/18 23:47:49;;;;;;;3.33;3.08;;;22.20;99.70;;;;;;10493127;28;20225;-87
2022/06/18 23:52:52;;;;;;;6.50;3.90;;;22.10;99.70;;;;;;10513215;28;20209;-86
2022/06/18 23:57:55;;;;;;;3.83;3.45;;;22.20;99.60;;;;;;10505416;28;20246;-86
